This is the latest recevied weather packets stored in our database for station/object N7NKE. If no packets are shown the sender has not sent any weather packets the latest 10 day(s).
| Time | Temp. | Humidity | Pressure | Rain* | Wind** | Luminosity | Snow |
|---|---|---|---|---|---|---|---|
| 1777734905 | 10.56° C | 82% | 1016.1 hPa | 0 mm | - | 51 W/m² | - |
| 1777734605 | 10.56° C | 82% | 1015.7 hPa | 0 mm | - | 39 W/m² | - |
| 1777722904 | 9.44° C | 85% | 1016.1 hPa | 0 mm | - | 0 W/m² | - |
| 1777720205 | 9.44° C | 83% | 1016 hPa | 0 mm | - | 0 W/m² | - |
| 1777719304 | 9.44° C | 82% | 1015.8 hPa | 0 mm | - | 0 W/m² | - |
| 1777718405 | 9.44° C | 81% | 1015.9 hPa | 0 mm | - | 0 W/m² | - |
| 1777717805 | 9.44° C | 81% | 1015.9 hPa | 0 mm | - | 0 W/m² | - |
| 1777713604 | 10.56° C | 80% | 1017.1 hPa | 0 mm | - | 0 W/m² | - |
| 1777707005 | 12.22° C | 71% | 1016.9 hPa | 0 mm | - | 0 W/m² | - |
| 1777706105 | 12.22° C | 70% | 1016.9 hPa | 0 mm | - | 0 W/m² | - |
| 1777704904 | 12.22° C | 72% | 1016.8 hPa | 0 mm | - | 0 W/m² | - |
| 1777703105 | 12.22° C | 71% | 1016.9 hPa | 0 mm | - | 0 W/m² | - |
| 1777702205 | 12.78° C | 70% | 1016.7 hPa | 0 mm | - | 0 W/m² | - |
| 1777697704 | 14.44° C | 60% | 1016.2 hPa | 0 mm | - | 0 W/m² | - |
| 1777697104 | 15° C | 59% | 1016 hPa | 0 mm | - | 0 W/m² | - |
| 1777696805 | 15° C | 59% | 1015.9 hPa | 0 mm | - | 0 W/m² | - |
| 1777696205 | 15° C | 58% | 1015.8 hPa | 0 mm | - | 0 W/m² | - |
| 1777694704 | 15.56° C | 56% | 1015.4 hPa | 0 mm | - | 0 W/m² | - |
| 1777694104 | 15.56° C | 55% | 1015.4 hPa | 0 mm | - | 0 W/m² | - |
| 1777693805 | 15.56° C | 55% | 1015.3 hPa | 0 mm | - | 0 W/m² | - |
| 1777684205 | 20.56° C | 56% | 1014.1 hPa | 0 mm | - | 192 W/m² | - |
| 1777682405 | 21.67° C | 53% | 1014 hPa | 0 mm | - | 309 W/m² | - |
| 1777680304 | 22.78° C | 52% | 1013.8 hPa | 0 mm | - | 123 W/m² | - |
| 1777680004 | 23.33° C | 52% | 1013.7 hPa | 0 mm | - | 123 W/m² | - |
| 1777679105 | 23.89° C | 50% | 1013.7 hPa | 0 mm | - | 524 W/m² | - |
* Rain latest hour (hover to see other rain measurements)
** Current wind speed in m/s (hover to see current wind gust speed)